This is the latest recevied weather packets stored in our database for station/object RN1M-13. If no packets are shown the sender has not sent any weather packets the latest 10 day(s).
| Time | Temp. | Humidity | Pressure | Rain* | Wind** | Luminosity | Snow |
|---|---|---|---|---|---|---|---|
| 1777572220 | 6.67° C | 100% | 1015.1 hPa | - | - | - | - |
| 1777571320 | 6.67° C | 100% | 1015.6 hPa | - | - | - | - |
| 1777570420 | 6.11° C | 100% | 1016 hPa | - | - | - | - |
| 1777569520 | 6.67° C | 100% | 1016.3 hPa | - | - | - | - |
| 1777568622 | 5.56° C | 100% | 1017.1 hPa | - | - | - | - |
| 1777567727 | 5.56° C | 100% | 1017.2 hPa | - | - | - | - |
| 1777566827 | 5.56° C | 100% | 1017.5 hPa | - | - | - | - |
| 1777565927 | 6.11° C | 100% | 1017.4 hPa | - | - | - | - |
| 1777565027 | 6.11° C | 100% | 1017.5 hPa | - | - | - | - |
| 1777564127 | 6.67° C | 100% | 1017.7 hPa | - | - | - | - |
| 1777563227 | 6.11° C | 100% | 1017.7 hPa | - | - | - | - |
| 1777562326 | 5.56° C | 100% | 1017.8 hPa | - | - | - | - |
| 1777561426 | 6.11° C | 100% | 1017.9 hPa | - | - | - | - |
| 1777560526 | 6.11° C | 100% | 1018.1 hPa | - | - | - | - |
| 1777559626 | 6.11° C | 100% | 1018.3 hPa | - | - | - | - |
| 1777558726 | 5.56° C | 100% | 1018.5 hPa | - | - | - | - |
| 1777557828 | 6.11° C | 100% | 1018.5 hPa | - | - | - | - |
| 1777556935 | 6.11° C | 100% | 1018.5 hPa | - | - | - | - |
| 1777556035 | 6.11° C | 100% | 1018.5 hPa | - | - | - | - |
| 1777555135 | 6.11° C | 100% | 1018.7 hPa | - | - | - | - |
| 1777554235 | 6.11° C | 100% | 1019 hPa | - | - | - | - |
| 1777553335 | 6.11° C | 100% | 1019.2 hPa | - | - | - | - |
| 1777552435 | 6.11° C | 100% | 1019.4 hPa | - | - | - | - |
| 1777551535 | 6.11° C | 100% | 1019.7 hPa | - | - | - | - |
| 1777550635 | 6.67° C | 100% | 1019.6 hPa | - | - | - | - |
* Rain since midnight (hover to see other rain measurements)
** Current wind speed in m/s (hover to see current wind gust speed)